sensor_id;sensor_type;location;lat;lon;timestamp;P1;durP1;ratioP1;P2;durP2;ratioP2
28022;SDS011;67403;50.104;8.758;2024-02-26T00:02:22;6.47;;;2.47;;
28022;SDS011;67403;50.104;8.758;2024-02-26T00:04:50;6.68;;;2.78;;
28022;SDS011;67403;50.104;8.758;2024-02-26T00:07:17;3.50;;;2.35;;
28022;SDS011;67403;50.104;8.758;2024-02-26T00:09:44;3.17;;;2.00;;
28022;SDS011;67403;50.104;8.758;2024-02-26T00:12:13;3.78;;;2.15;;
28022;SDS011;67403;50.104;8.758;2024-02-26T00:14:40;4.43;;;2.20;;
28022;SDS011;67403;50.104;8.758;2024-02-26T00:17:07;4.22;;;2.20;;
28022;SDS011;67403;50.104;8.758;2024-02-26T00:19:35;5.97;;;2.60;;
28022;SDS011;67403;50.104;8.758;2024-02-26T00:22:02;3.15;;;2.10;;
28022;SDS011;67403;50.104;8.758;2024-02-26T00:24:29;3.80;;;2.03;;
28022;SDS011;67403;50.104;8.758;2024-02-26T00:26:57;5.05;;;1.98;;
28022;SDS011;67403;50.104;8.758;2024-02-26T00:29:25;3.67;;;1.90;;
28022;SDS011;67403;50.104;8.758;2024-02-26T00:31:52;3.25;;;2.03;;
28022;SDS011;67403;50.104;8.758;2024-02-26T00:34:20;2.30;;;1.70;;
28022;SDS011;67403;50.104;8.758;2024-02-26T00:36:47;2.63;;;1.70;;
28022;SDS011;67403;50.104;8.758;2024-02-26T00:39:14;3.55;;;1.90;;
28022;SDS011;67403;50.104;8.758;2024-02-26T00:41:41;3.25;;;1.70;;
28022;SDS011;67403;50.104;8.758;2024-02-26T00:44:09;2.25;;;1.75;;
28022;SDS011;67403;50.104;8.758;2024-02-26T00:46:38;3.63;;;1.80;;
28022;SDS011;67403;50.104;8.758;2024-02-26T00:49:05;4.45;;;2.17;;
28022;SDS011;67403;50.104;8.758;2024-02-26T00:51:32;2.28;;;1.90;;
28022;SDS011;67403;50.104;8.758;2024-02-26T00:53:59;3.97;;;2.20;;
28022;SDS011;67403;50.104;8.758;2024-02-26T00:56:27;4.20;;;1.83;;
28022;SDS011;67403;50.104;8.758;2024-02-26T00:58:54;3.80;;;2.03;;
28022;SDS011;67403;50.104;8.758;2024-02-26T01:01:21;4.35;;;1.95;;
28022;SDS011;67403;50.104;8.758;2024-02-26T01:03:50;3.00;;;1.90;;
28022;SDS011;67403;50.104;8.758;2024-02-26T01:06:17;5.13;;;2.33;;
28022;SDS011;67403;50.104;8.758;2024-02-26T01:08:44;5.15;;;2.25;;
28022;SDS011;67403;50.104;8.758;2024-02-26T01:11:12;3.75;;;2.10;;
28022;SDS011;67403;50.104;8.758;2024-02-26T01:13:39;4.55;;;2.28;;
28022;SDS011;67403;50.104;8.758;2024-02-26T01:16:06;4.32;;;2.63;;
28022;SDS011;67403;50.104;8.758;2024-02-26T01:18:33;4.07;;;2.60;;
28022;SDS011;67403;50.104;8.758;2024-02-26T01:21:02;3.47;;;2.42;;
28022;SDS011;67403;50.104;8.758;2024-02-26T01:23:32;3.78;;;2.33;;
28022;SDS011;67403;50.104;8.758;2024-02-26T01:25:59;4.50;;;2.33;;
28022;SDS011;67403;50.104;8.758;2024-02-26T01:28:28;4.57;;;2.70;;
28022;SDS011;67403;50.104;8.758;2024-02-26T01:30:55;4.03;;;2.45;;
28022;SDS011;67403;50.104;8.758;2024-02-26T01:33:24;4.63;;;2.53;;
28022;SDS011;67403;50.104;8.758;2024-02-26T01:35:52;3.40;;;2.30;;
28022;SDS011;67403;50.104;8.758;2024-02-26T01:38:20;3.88;;;2.72;;
28022;SDS011;67403;50.104;8.758;2024-02-26T01:40:48;5.82;;;2.95;;
28022;SDS011;67403;50.104;8.758;2024-02-26T01:43:15;4.30;;;2.58;;
28022;SDS011;67403;50.104;8.758;2024-02-26T01:45:42;5.95;;;2.40;;
28022;SDS011;67403;50.104;8.758;2024-02-26T01:48:09;4.85;;;2.20;;
28022;SDS011;67403;50.104;8.758;2024-02-26T01:50:37;4.45;;;2.25;;
28022;SDS011;67403;50.104;8.758;2024-02-26T01:53:04;4.55;;;2.30;;
28022;SDS011;67403;50.104;8.758;2024-02-26T01:55:33;3.78;;;2.53;;
28022;SDS011;67403;50.104;8.758;2024-02-26T01:58:00;5.45;;;2.78;;
28022;SDS011;67403;50.104;8.758;2024-02-26T02:00:28;3.80;;;2.45;;
28022;SDS011;67403;50.104;8.758;2024-02-26T02:02:55;5.22;;;2.60;;
28022;SDS011;67403;50.104;8.758;2024-02-26T02:05:23;5.03;;;2.33;;
28022;SDS011;67403;50.104;8.758;2024-02-26T02:07:50;4.25;;;2.47;;
28022;SDS011;67403;50.104;8.758;2024-02-26T02:10:18;4.50;;;2.75;;
28022;SDS011;67403;50.104;8.758;2024-02-26T02:12:49;8.75;;;2.88;;
28022;SDS011;67403;50.104;8.758;2024-02-26T02:15:16;5.10;;;2.80;;
28022;SDS011;67403;50.104;8.758;2024-02-26T02:17:44;5.50;;;2.55;;
28022;SDS011;67403;50.104;8.758;2024-02-26T02:20:14;4.00;;;2.42;;
28022;SDS011;67403;50.104;8.758;2024-02-26T02:22:43;6.63;;;2.40;;
28022;SDS011;67403;50.104;8.758;2024-02-26T02:25:11;4.28;;;2.38;;
28022;SDS011;67403;50.104;8.758;2024-02-26T02:27:38;2.97;;;2.20;;
28022;SDS011;67403;50.104;8.758;2024-02-26T02:30:06;6.55;;;2.92;;
28022;SDS011;67403;50.104;8.758;2024-02-26T02:32:35;4.90;;;2.70;;
28022;SDS011;67403;50.104;8.758;2024-02-26T02:35:02;10.27;;;3.30;;
28022;SDS011;67403;50.104;8.758;2024-02-26T02:37:30;4.47;;;2.90;;
28022;SDS011;67403;50.104;8.758;2024-02-26T02:39:58;7.88;;;3.00;;
28022;SDS011;67403;50.104;8.758;2024-02-26T02:42:26;3.80;;;2.50;;
28022;SDS011;67403;50.104;8.758;2024-02-26T02:44:53;5.97;;;2.72;;
28022;SDS011;67403;50.104;8.758;2024-02-26T02:47:20;4.85;;;2.42;;
28022;SDS011;67403;50.104;8.758;2024-02-26T02:49:47;4.10;;;2.55;;
28022;SDS011;67403;50.104;8.758;2024-02-26T02:52:15;4.32;;;2.38;;
28022;SDS011;67403;50.104;8.758;2024-02-26T02:54:42;3.60;;;2.50;;
28022;SDS011;67403;50.104;8.758;2024-02-26T02:57:10;3.85;;;2.50;;
28022;SDS011;67403;50.104;8.758;2024-02-26T02:59:38;3.88;;;2.42;;
28022;SDS011;67403;50.104;8.758;2024-02-26T03:02:06;3.53;;;2.47;;
28022;SDS011;67403;50.104;8.758;2024-02-26T03:04:33;4.30;;;2.60;;
28022;SDS011;67403;50.104;8.758;2024-02-26T03:07:00;4.28;;;2.55;;
28022;SDS011;67403;50.104;8.758;2024-02-26T03:09:27;4.82;;;2.67;;
28022;SDS011;67403;50.104;8.758;2024-02-26T03:11:54;4.10;;;2.63;;
28022;SDS011;67403;50.104;8.758;2024-02-26T03:14:23;5.82;;;3.28;;
28022;SDS011;67403;50.104;8.758;2024-02-26T03:16:52;4.95;;;2.80;;
28022;SDS011;67403;50.104;8.758;2024-02-26T03:19:20;5.85;;;2.67;;
28022;SDS011;67403;50.104;8.758;2024-02-26T03:21:47;5.43;;;2.70;;
28022;SDS011;67403;50.104;8.758;2024-02-26T03:24:14;5.45;;;3.55;;
28022;SDS011;67403;50.104;8.758;2024-02-26T03:26:41;7.45;;;3.40;;
28022;SDS011;67403;50.104;8.758;2024-02-26T03:29:09;6.53;;;3.38;;
28022;SDS011;67403;50.104;8.758;2024-02-26T03:31:37;6.32;;;3.33;;
28022;SDS011;67403;50.104;8.758;2024-02-26T03:34:05;6.40;;;2.60;;
28022;SDS011;67403;50.104;8.758;2024-02-26T03:36:32;5.22;;;2.35;;
28022;SDS011;67403;50.104;8.758;2024-02-26T03:38:59;5.80;;;3.08;;
28022;SDS011;67403;50.104;8.758;2024-02-26T03:41:29;4.43;;;2.70;;
28022;SDS011;67403;50.104;8.758;2024-02-26T03:43:57;6.85;;;2.92;;
28022;SDS011;67403;50.104;8.758;2024-02-26T03:46:24;4.68;;;2.80;;
28022;SDS011;67403;50.104;8.758;2024-02-26T03:48:53;3.78;;;2.38;;
28022;SDS011;67403;50.104;8.758;2024-02-26T03:51:20;4.10;;;2.70;;
28022;SDS011;67403;50.104;8.758;2024-02-26T03:53:47;4.35;;;2.47;;
28022;SDS011;67403;50.104;8.758;2024-02-26T03:56:15;4.30;;;2.40;;
28022;SDS011;67403;50.104;8.758;2024-02-26T03:58:42;4.75;;;2.80;;
28022;SDS011;67403;50.104;8.758;2024-02-26T04:01:10;5.15;;;3.10;;
28022;SDS011;67403;50.104;8.758;2024-02-26T04:03:37;3.72;;;2.90;;
28022;SDS011;67403;50.104;8.758;2024-02-26T04:06:08;5.22;;;2.92;;
28022;SDS011;67403;50.104;8.758;2024-02-26T04:08:36;5.38;;;3.25;;
28022;SDS011;67403;50.104;8.758;2024-02-26T04:11:03;4.43;;;2.63;;
28022;SDS011;67403;50.104;8.758;2024-02-26T04:13:32;5.10;;;3.27;;
28022;SDS011;67403;50.104;8.758;2024-02-26T04:16:00;4.28;;;2.70;;
28022;SDS011;67403;50.104;8.758;2024-02-26T04:18:28;3.53;;;2.63;;
28022;SDS011;67403;50.104;8.758;2024-02-26T04:20:55;4.35;;;2.47;;
28022;SDS011;67403;50.104;8.758;2024-02-26T04:23:24;4.40;;;2.67;;
28022;SDS011;67403;50.104;8.758;2024-02-26T04:25:51;5.90;;;2.90;;
28022;SDS011;67403;50.104;8.758;2024-02-26T04:28:19;4.78;;;2.85;;
28022;SDS011;67403;50.104;8.758;2024-02-26T04:30:47;8.13;;;3.78;;
28022;SDS011;67403;50.104;8.758;2024-02-26T04:33:14;5.18;;;2.90;;
28022;SDS011;67403;50.104;8.758;2024-02-26T04:35:42;3.83;;;2.90;;
28022;SDS011;67403;50.104;8.758;2024-02-26T04:38:09;12.35;;;3.45;;
28022;SDS011;67403;50.104;8.758;2024-02-26T04:40:38;5.90;;;3.00;;
28022;SDS011;67403;50.104;8.758;2024-02-26T04:43:05;9.57;;;3.50;;
28022;SDS011;67403;50.104;8.758;2024-02-26T04:45:32;4.80;;;2.85;;
28022;SDS011;67403;50.104;8.758;2024-02-26T04:47:59;6.47;;;3.13;;
28022;SDS011;67403;50.104;8.758;2024-02-26T04:50:27;5.53;;;3.42;;
28022;SDS011;67403;50.104;8.758;2024-02-26T04:52:54;5.95;;;3.28;;
28022;SDS011;67403;50.104;8.758;2024-02-26T04:55:21;4.10;;;3.13;;
28022;SDS011;67403;50.104;8.758;2024-02-26T04:57:50;6.18;;;3.47;;
28022;SDS011;67403;50.104;8.758;2024-02-26T05:00:17;8.75;;;3.22;;
28022;SDS011;67403;50.104;8.758;2024-02-26T05:02:45;5.53;;;3.28;;
28022;SDS011;67403;50.104;8.758;2024-02-26T05:05:12;5.18;;;2.90;;
28022;SDS011;67403;50.104;8.758;2024-02-26T05:07:39;7.57;;;3.50;;
28022;SDS011;67403;50.104;8.758;2024-02-26T05:10:07;6.70;;;3.75;;
28022;SDS011;67403;50.104;8.758;2024-02-26T05:12:35;7.70;;;4.15;;
28022;SDS011;67403;50.104;8.758;2024-02-26T05:15:04;6.57;;;3.72;;
28022;SDS011;67403;50.104;8.758;2024-02-26T05:17:31;6.20;;;3.90;;
28022;SDS011;67403;50.104;8.758;2024-02-26T05:19:59;5.63;;;3.47;;
28022;SDS011;67403;50.104;8.758;2024-02-26T05:22:26;8.68;;;3.78;;
28022;SDS011;67403;50.104;8.758;2024-02-26T05:24:53;5.45;;;3.38;;
28022;SDS011;67403;50.104;8.758;2024-02-26T05:27:21;6.10;;;3.47;;
28022;SDS011;67403;50.104;8.758;2024-02-26T05:29:49;7.25;;;3.83;;
28022;SDS011;67403;50.104;8.758;2024-02-26T05:32:18;5.50;;;3.05;;
28022;SDS011;67403;50.104;8.758;2024-02-26T05:34:45;5.53;;;3.60;;
28022;SDS011;67403;50.104;8.758;2024-02-26T05:37:13;6.47;;;3.88;;
28022;SDS011;67403;50.104;8.758;2024-02-26T05:39:40;6.10;;;4.10;;
28022;SDS011;67403;50.104;8.758;2024-02-26T05:42:06;6.53;;;3.42;;
28022;SDS011;67403;50.104;8.758;2024-02-26T05:44:34;7.63;;;4.07;;
28022;SDS011;67403;50.104;8.758;2024-02-26T05:47:01;5.53;;;3.63;;
28022;SDS011;67403;50.104;8.758;2024-02-26T05:49:30;6.32;;;3.70;;
28022;SDS011;67403;50.104;8.758;2024-02-26T05:51:57;5.68;;;3.80;;
28022;SDS011;67403;50.104;8.758;2024-02-26T05:54:25;7.85;;;3.83;;
28022;SDS011;67403;50.104;8.758;2024-02-26T05:56:52;6.68;;;3.85;;
28022;SDS011;67403;50.104;8.758;2024-02-26T05:59:19;8.15;;;3.97;;
28022;SDS011;67403;50.104;8.758;2024-02-26T06:01:47;7.65;;;3.90;;
28022;SDS011;67403;50.104;8.758;2024-02-26T06:04:14;9.23;;;3.78;;
28022;SDS011;67403;50.104;8.758;2024-02-26T06:06:43;6.85;;;3.92;;
28022;SDS011;67403;50.104;8.758;2024-02-26T06:09:11;7.03;;;4.50;;
28022;SDS011;67403;50.104;8.758;2024-02-26T06:11:39;7.90;;;3.88;;
28022;SDS011;67403;50.104;8.758;2024-02-26T06:14:06;8.80;;;4.07;;
28022;SDS011;67403;50.104;8.758;2024-02-26T06:16:33;9.02;;;5.00;;
28022;SDS011;67403;50.104;8.758;2024-02-26T06:19:01;5.65;;;4.05;;
28022;SDS011;67403;50.104;8.758;2024-02-26T06:21:29;7.03;;;3.55;;
28022;SDS011;67403;50.104;8.758;2024-02-26T06:23:57;9.50;;;4.50;;
28022;SDS011;67403;50.104;8.758;2024-02-26T06:26:25;6.70;;;3.72;;
28022;SDS011;67403;50.104;8.758;2024-02-26T06:28:54;8.35;;;4.20;;
28022;SDS011;67403;50.104;8.758;2024-02-26T06:31:21;12.43;;;6.00;;
28022;SDS011;67403;50.104;8.758;2024-02-26T06:33:49;14.35;;;6.28;;
28022;SDS011;67403;50.104;8.758;2024-02-26T06:36:16;12.88;;;4.38;;
28022;SDS011;67403;50.104;8.758;2024-02-26T06:38:43;8.57;;;4.35;;
28022;SDS011;67403;50.104;8.758;2024-02-26T06:41:12;11.25;;;5.43;;
28022;SDS011;67403;50.104;8.758;2024-02-26T06:43:39;17.60;;;8.50;;
28022;SDS011;67403;50.104;8.758;2024-02-26T06:46:06;7.53;;;4.53;;
28022;SDS011;67403;50.104;8.758;2024-02-26T06:48:33;6.30;;;4.13;;
28022;SDS011;67403;50.104;8.758;2024-02-26T06:51:02;9.77;;;4.85;;
28022;SDS011;67403;50.104;8.758;2024-02-26T06:53:29;10.15;;;5.22;;
28022;SDS011;67403;50.104;8.758;2024-02-26T06:55:56;6.78;;;4.20;;
28022;SDS011;67403;50.104;8.758;2024-02-26T06:58:25;10.27;;;5.03;;
28022;SDS011;67403;50.104;8.758;2024-02-26T07:00:52;11.25;;;4.35;;
28022;SDS011;67403;50.104;8.758;2024-02-26T07:03:19;7.75;;;4.38;;
28022;SDS011;67403;50.104;8.758;2024-02-26T07:05:48;12.15;;;4.55;;
28022;SDS011;67403;50.104;8.758;2024-02-26T07:08:15;8.07;;;4.70;;
28022;SDS011;67403;50.104;8.758;2024-02-26T07:10:43;39.85;;;15.02;;
28022;SDS011;67403;50.104;8.758;2024-02-26T07:13:10;15.05;;;8.00;;
28022;SDS011;67403;50.104;8.758;2024-02-26T07:15:38;10.85;;;5.38;;
28022;SDS011;67403;50.104;8.758;2024-02-26T07:18:06;7.85;;;5.00;;
28022;SDS011;67403;50.104;8.758;2024-02-26T07:20:34;9.10;;;5.15;;
28022;SDS011;67403;50.104;8.758;2024-02-26T07:23:01;11.10;;;5.18;;
28022;SDS011;67403;50.104;8.758;2024-02-26T07:25:28;12.20;;;5.38;;
28022;SDS011;67403;50.104;8.758;2024-02-26T07:27:56;8.85;;;5.47;;
28022;SDS011;67403;50.104;8.758;2024-02-26T07:30:23;10.25;;;5.85;;
28022;SDS011;67403;50.104;8.758;2024-02-26T07:32:51;8.00;;;5.07;;
28022;SDS011;67403;50.104;8.758;2024-02-26T07:35:19;15.07;;;7.20;;
28022;SDS011;67403;50.104;8.758;2024-02-26T07:37:47;15.27;;;7.03;;
28022;SDS011;67403;50.104;8.758;2024-02-26T07:40:15;11.55;;;5.85;;
28022;SDS011;67403;50.104;8.758;2024-02-26T07:42:43;9.15;;;5.53;;
28022;SDS011;67403;50.104;8.758;2024-02-26T07:45:10;9.82;;;5.22;;
28022;SDS011;67403;50.104;8.758;2024-02-26T07:47:37;8.63;;;4.82;;
28022;SDS011;67403;50.104;8.758;2024-02-26T07:50:08;10.18;;;4.53;;
28022;SDS011;67403;50.104;8.758;2024-02-26T07:52:37;10.23;;;5.72;;
28022;SDS011;67403;50.104;8.758;2024-02-26T07:55:05;10.93;;;5.40;;
28022;SDS011;67403;50.104;8.758;2024-02-26T07:57:32;11.15;;;5.65;;
28022;SDS011;67403;50.104;8.758;2024-02-26T08:00:00;9.20;;;5.55;;
28022;SDS011;67403;50.104;8.758;2024-02-26T08:02:27;8.70;;;5.43;;
28022;SDS011;67403;50.104;8.758;2024-02-26T08:04:55;13.18;;;5.18;;
28022;SDS011;67403;50.104;8.758;2024-02-26T08:07:23;12.15;;;6.03;;
28022;SDS011;67403;50.104;8.758;2024-02-26T08:09:51;9.98;;;5.72;;
28022;SDS011;67403;50.104;8.758;2024-02-26T08:12:18;12.65;;;5.90;;
28022;SDS011;67403;50.104;8.758;2024-02-26T08:14:46;10.57;;;5.97;;
28022;SDS011;67403;50.104;8.758;2024-02-26T08:17:13;10.02;;;5.30;;
28022;SDS011;67403;50.104;8.758;2024-02-26T08:19:41;10.52;;;5.18;;
28022;SDS011;67403;50.104;8.758;2024-02-26T08:22:08;8.77;;;5.28;;
28022;SDS011;67403;50.104;8.758;2024-02-26T08:24:42;11.98;;;6.50;;
28022;SDS011;67403;50.104;8.758;2024-02-26T08:27:09;11.57;;;5.65;;
28022;SDS011;67403;50.104;8.758;2024-02-26T08:29:37;12.73;;;6.22;;
28022;SDS011;67403;50.104;8.758;2024-02-26T08:32:04;20.58;;;9.00;;
28022;SDS011;67403;50.104;8.758;2024-02-26T08:34:32;7.40;;;4.75;;
28022;SDS011;67403;50.104;8.758;2024-02-26T08:36:59;11.80;;;5.45;;
28022;SDS011;67403;50.104;8.758;2024-02-26T08:39:27;15.43;;;8.02;;
28022;SDS011;67403;50.104;8.758;2024-02-26T08:41:55;8.15;;;5.45;;
28022;SDS011;67403;50.104;8.758;2024-02-26T08:44:22;10.30;;;5.97;;
28022;SDS011;67403;50.104;8.758;2024-02-26T08:46:51;10.20;;;5.20;;
28022;SDS011;67403;50.104;8.758;2024-02-26T08:49:18;9.82;;;5.30;;
28022;SDS011;67403;50.104;8.758;2024-02-26T08:51:48;11.35;;;5.82;;
28022;SDS011;67403;50.104;8.758;2024-02-26T08:54:15;11.10;;;6.47;;
28022;SDS011;67403;50.104;8.758;2024-02-26T08:56:43;11.55;;;6.28;;
28022;SDS011;67403;50.104;8.758;2024-02-26T08:59:12;13.52;;;6.22;;
28022;SDS011;67403;50.104;8.758;2024-02-26T09:01:41;13.05;;;6.45;;
28022;SDS011;67403;50.104;8.758;2024-02-26T09:04:09;11.20;;;6.40;;
28022;SDS011;67403;50.104;8.758;2024-02-26T09:06:36;12.10;;;5.90;;
28022;SDS011;67403;50.104;8.758;2024-02-26T09:09:03;17.15;;;6.85;;
28022;SDS011;67403;50.104;8.758;2024-02-26T09:11:30;16.23;;;7.47;;
28022;SDS011;67403;50.104;8.758;2024-02-26T09:13:58;17.25;;;7.50;;
28022;SDS011;67403;50.104;8.758;2024-02-26T09:16:26;12.98;;;6.80;;
28022;SDS011;67403;50.104;8.758;2024-02-26T09:18:53;11.35;;;6.20;;
28022;SDS011;67403;50.104;8.758;2024-02-26T09:21:21;11.40;;;6.20;;
28022;SDS011;67403;50.104;8.758;2024-02-26T09:23:50;11.23;;;6.40;;
28022;SDS011;67403;50.104;8.758;2024-02-26T09:26:17;13.15;;;6.57;;
28022;SDS011;67403;50.104;8.758;2024-02-26T09:28:45;12.55;;;7.45;;
28022;SDS011;67403;50.104;8.758;2024-02-26T09:31:12;13.52;;;5.80;;
28022;SDS011;67403;50.104;8.758;2024-02-26T09:33:42;21.10;;;6.97;;
28022;SDS011;67403;50.104;8.758;2024-02-26T09:36:11;9.23;;;5.80;;
28022;SDS011;67403;50.104;8.758;2024-02-26T09:38:39;18.38;;;7.65;;
28022;SDS011;67403;50.104;8.758;2024-02-26T09:41:06;11.93;;;6.38;;
28022;SDS011;67403;50.104;8.758;2024-02-26T09:43:34;10.23;;;5.72;;
28022;SDS011;67403;50.104;8.758;2024-02-26T09:46:01;10.82;;;5.47;;
28022;SDS011;67403;50.104;8.758;2024-02-26T09:48:29;13.27;;;6.47;;
28022;SDS011;67403;50.104;8.758;2024-02-26T09:50:58;12.02;;;6.50;;
28022;SDS011;67403;50.104;8.758;2024-02-26T09:53:26;13.43;;;6.18;;
28022;SDS011;67403;50.104;8.758;2024-02-26T09:55:57;12.63;;;6.03;;
28022;SDS011;67403;50.104;8.758;2024-02-26T09:58:24;12.05;;;5.93;;
28022;SDS011;67403;50.104;8.758;2024-02-26T10:00:53;11.50;;;5.70;;
28022;SDS011;67403;50.104;8.758;2024-02-26T10:03:21;11.80;;;6.47;;
28022;SDS011;67403;50.104;8.758;2024-02-26T10:05:50;15.02;;;6.00;;
28022;SDS011;67403;50.104;8.758;2024-02-26T10:08:22;9.82;;;6.03;;
28022;SDS011;67403;50.104;8.758;2024-02-26T10:10:50;14.40;;;6.22;;
28022;SDS011;67403;50.104;8.758;2024-02-26T10:13:17;14.57;;;5.90;;
28022;SDS011;67403;50.104;8.758;2024-02-26T10:15:45;11.80;;;6.65;;
28022;SDS011;67403;50.104;8.758;2024-02-26T10:18:13;11.95;;;6.22;;
28022;SDS011;67403;50.104;8.758;2024-02-26T10:20:40;19.27;;;8.18;;
28022;SDS011;67403;50.104;8.758;2024-02-26T10:23:07;14.25;;;7.60;;
28022;SDS011;67403;50.104;8.758;2024-02-26T10:25:36;10.60;;;6.90;;
28022;SDS011;67403;50.104;8.758;2024-02-26T10:28:03;14.07;;;6.55;;
28022;SDS011;67403;50.104;8.758;2024-02-26T10:30:31;11.52;;;6.18;;
28022;SDS011;67403;50.104;8.758;2024-02-26T10:32:58;11.30;;;6.32;;
28022;SDS011;67403;50.104;8.758;2024-02-26T10:35:26;12.75;;;6.25;;
28022;SDS011;67403;50.104;8.758;2024-02-26T10:37:54;10.80;;;6.07;;
28022;SDS011;67403;50.104;8.758;2024-02-26T10:40:21;11.50;;;6.25;;
28022;SDS011;67403;50.104;8.758;2024-02-26T10:42:49;11.15;;;6.03;;
28022;SDS011;67403;50.104;8.758;2024-02-26T10:45:17;13.98;;;6.30;;
28022;SDS011;67403;50.104;8.758;2024-02-26T10:47:44;14.95;;;6.65;;
28022;SDS011;67403;50.104;8.758;2024-02-26T10:50:12;10.38;;;6.30;;
28022;SDS011;67403;50.104;8.758;2024-02-26T10:52:40;16.55;;;6.50;;
28022;SDS011;67403;50.104;8.758;2024-02-26T10:55:08;19.20;;;9.32;;
28022;SDS011;67403;50.104;8.758;2024-02-26T10:57:39;9.80;;;6.18;;
28022;SDS011;67403;50.104;8.758;2024-02-26T11:00:10;11.90;;;5.32;;
28022;SDS011;67403;50.104;8.758;2024-02-26T11:02:37;11.73;;;6.00;;
28022;SDS011;67403;50.104;8.758;2024-02-26T11:05:05;9.25;;;5.35;;
28022;SDS011;67403;50.104;8.758;2024-02-26T11:07:33;9.32;;;5.72;;
28022;SDS011;67403;50.104;8.758;2024-02-26T11:10:02;8.95;;;5.30;;
28022;SDS011;67403;50.104;8.758;2024-02-26T11:12:30;11.98;;;6.25;;
28022;SDS011;67403;50.104;8.758;2024-02-26T11:14:58;9.73;;;4.95;;
28022;SDS011;67403;50.104;8.758;2024-02-26T11:17:28;9.30;;;5.47;;
28022;SDS011;67403;50.104;8.758;2024-02-26T11:22:24;8.85;;;5.90;;
28022;SDS011;67403;50.104;8.758;2024-02-26T11:24:52;13.48;;;7.28;;
28022;SDS011;67403;50.104;8.758;2024-02-26T11:27:23;7.35;;;5.35;;
28022;SDS011;67403;50.104;8.758;2024-02-26T11:29:52;12.40;;;6.65;;
28022;SDS011;67403;50.104;8.758;2024-02-26T11:32:20;10.27;;;5.40;;
28022;SDS011;67403;50.104;8.758;2024-02-26T11:34:49;11.25;;;6.47;;
28022;SDS011;67403;50.104;8.758;2024-02-26T11:37:16;10.82;;;5.40;;
28022;SDS011;67403;50.104;8.758;2024-02-26T11:39:45;12.38;;;5.93;;
28022;SDS011;67403;50.104;8.758;2024-02-26T11:42:13;12.25;;;7.07;;
28022;SDS011;67403;50.104;8.758;2024-02-26T11:44:40;14.18;;;5.95;;
28022;SDS011;67403;50.104;8.758;2024-02-26T11:47:11;14.90;;;6.65;;
28022;SDS011;67403;50.104;8.758;2024-02-26T11:49:39;11.88;;;6.25;;
28022;SDS011;67403;50.104;8.758;2024-02-26T11:52:08;9.05;;;5.68;;
28022;SDS011;67403;50.104;8.758;2024-02-26T11:54:39;7.47;;;4.83;;
28022;SDS011;67403;50.104;8.758;2024-02-26T11:57:19;7.97;;;4.90;;
28022;SDS011;67403;50.104;8.758;2024-02-26T12:04:57;9.55;;;5.43;;
28022;SDS011;67403;50.104;8.758;2024-02-26T12:07:26;9.27;;;5.60;;
28022;SDS011;67403;50.104;8.758;2024-02-26T12:09:56;8.53;;;6.13;;
28022;SDS011;67403;50.104;8.758;2024-02-26T12:12:41;8.82;;;5.03;;
28022;SDS011;67403;50.104;8.758;2024-02-26T12:15:08;8.43;;;5.35;;
28022;SDS011;67403;50.104;8.758;2024-02-26T12:17:37;10.47;;;5.20;;
28022;SDS011;67403;50.104;8.758;2024-02-26T12:20:08;10.95;;;6.53;;
28022;SDS011;67403;50.104;8.758;2024-02-26T12:22:37;8.45;;;5.32;;
28022;SDS011;67403;50.104;8.758;2024-02-26T12:25:06;9.70;;;5.63;;
28022;SDS011;67403;50.104;8.758;2024-02-26T12:27:35;8.95;;;5.30;;
28022;SDS011;67403;50.104;8.758;2024-02-26T12:30:03;7.55;;;4.70;;
28022;SDS011;67403;50.104;8.758;2024-02-26T12:32:32;9.80;;;5.05;;
28022;SDS011;67403;50.104;8.758;2024-02-26T12:34:59;7.95;;;4.47;;
28022;SDS011;67403;50.104;8.758;2024-02-26T12:37:27;9.20;;;4.88;;
28022;SDS011;67403;50.104;8.758;2024-02-26T12:39:56;11.68;;;5.90;;
28022;SDS011;67403;50.104;8.758;2024-02-26T12:42:24;9.02;;;5.45;;
28022;SDS011;67403;50.104;8.758;2024-02-26T12:44:51;10.95;;;5.97;;
28022;SDS011;67403;50.104;8.758;2024-02-26T12:47:19;10.25;;;6.43;;
28022;SDS011;67403;50.104;8.758;2024-02-26T12:49:47;6.90;;;4.90;;
28022;SDS011;67403;50.104;8.758;2024-02-26T12:52:14;8.57;;;4.68;;
28022;SDS011;67403;50.104;8.758;2024-02-26T12:54:42;7.13;;;5.05;;
28022;SDS011;67403;50.104;8.758;2024-02-26T12:57:10;7.22;;;4.90;;
28022;SDS011;67403;50.104;8.758;2024-02-26T12:59:38;8.23;;;5.22;;
28022;SDS011;67403;50.104;8.758;2024-02-26T13:02:05;7.13;;;4.97;;
28022;SDS011;67403;50.104;8.758;2024-02-26T13:04:32;8.25;;;4.93;;
28022;SDS011;67403;50.104;8.758;2024-02-26T13:07:02;10.93;;;5.03;;
28022;SDS011;67403;50.104;8.758;2024-02-26T13:09:32;9.45;;;5.25;;
28022;SDS011;67403;50.104;8.758;2024-02-26T13:11:59;8.43;;;4.60;;
28022;SDS011;67403;50.104;8.758;2024-02-26T13:14:28;8.27;;;4.72;;
28022;SDS011;67403;50.104;8.758;2024-02-26T13:16:57;7.55;;;4.75;;
28022;SDS011;67403;50.104;8.758;2024-02-26T13:19:25;7.43;;;4.47;;
28022;SDS011;67403;50.104;8.758;2024-02-26T13:21:53;6.78;;;4.28;;
28022;SDS011;67403;50.104;8.758;2024-02-26T13:24:20;8.05;;;5.45;;
28022;SDS011;67403;50.104;8.758;2024-02-26T13:26:53;11.23;;;5.70;;
28022;SDS011;67403;50.104;8.758;2024-02-26T13:29:21;7.47;;;4.57;;
28022;SDS011;67403;50.104;8.758;2024-02-26T13:31:54;7.23;;;4.43;;
28022;SDS011;67403;50.104;8.758;2024-02-26T13:34:22;9.35;;;4.65;;
28022;SDS011;67403;50.104;8.758;2024-02-26T13:36:51;9.02;;;4.80;;
28022;SDS011;67403;50.104;8.758;2024-02-26T13:39:21;8.18;;;5.20;;
28022;SDS011;67403;50.104;8.758;2024-02-26T13:41:49;9.18;;;4.65;;
28022;SDS011;67403;50.104;8.758;2024-02-26T13:44:16;8.43;;;5.00;;
28022;SDS011;67403;50.104;8.758;2024-02-26T13:46:43;11.52;;;5.63;;
28022;SDS011;67403;50.104;8.758;2024-02-26T13:49:12;8.25;;;4.75;;
28022;SDS011;67403;50.104;8.758;2024-02-26T13:51:39;10.63;;;5.00;;
28022;SDS011;67403;50.104;8.758;2024-02-26T13:54:06;7.40;;;5.13;;
28022;SDS011;67403;50.104;8.758;2024-02-26T13:56:34;5.53;;;4.32;;
28022;SDS011;67403;50.104;8.758;2024-02-26T13:59:02;23.75;;;10.70;;
28022;SDS011;67403;50.104;8.758;2024-02-26T14:01:29;12.27;;;6.75;;
28022;SDS011;67403;50.104;8.758;2024-02-26T14:03:58;7.80;;;5.53;;
28022;SDS011;67403;50.104;8.758;2024-02-26T14:06:28;9.80;;;5.03;;
28022;SDS011;67403;50.104;8.758;2024-02-26T14:08:57;7.18;;;4.82;;
28022;SDS011;67403;50.104;8.758;2024-02-26T14:11:25;8.10;;;5.05;;
28022;SDS011;67403;50.104;8.758;2024-02-26T14:13:54;9.88;;;4.55;;
28022;SDS011;67403;50.104;8.758;2024-02-26T14:16:21;7.80;;;5.07;;
28022;SDS011;67403;50.104;8.758;2024-02-26T14:18:48;8.10;;;4.80;;
28022;SDS011;67403;50.104;8.758;2024-02-26T14:21:16;9.32;;;5.38;;
28022;SDS011;67403;50.104;8.758;2024-02-26T14:23:44;8.10;;;4.38;;
28022;SDS011;67403;50.104;8.758;2024-02-26T14:26:12;7.85;;;4.75;;
28022;SDS011;67403;50.104;8.758;2024-02-26T14:28:39;10.60;;;5.68;;
28022;SDS011;67403;50.104;8.758;2024-02-26T14:31:06;6.90;;;4.40;;
28022;SDS011;67403;50.104;8.758;2024-02-26T14:33:37;6.28;;;4.20;;
28022;SDS011;67403;50.104;8.758;2024-02-26T14:36:06;8.05;;;4.00;;
28022;SDS011;67403;50.104;8.758;2024-02-26T14:38:33;8.25;;;4.72;;
28022;SDS011;67403;50.104;8.758;2024-02-26T14:41:02;7.28;;;4.72;;
28022;SDS011;67403;50.104;8.758;2024-02-26T14:43:29;10.93;;;6.93;;
28022;SDS011;67403;50.104;8.758;2024-02-26T14:45:57;10.65;;;6.70;;
28022;SDS011;67403;50.104;8.758;2024-02-26T14:48:25;8.32;;;5.03;;
28022;SDS011;67403;50.104;8.758;2024-02-26T14:50:53;15.98;;;8.43;;
28022;SDS011;67403;50.104;8.758;2024-02-26T14:53:20;7.53;;;4.07;;
28022;SDS011;67403;50.104;8.758;2024-02-26T14:55:48;8.65;;;5.22;;